createdAt,value
2022-08-27T00:02:12.334Z,100308.31
2022-08-27T00:04:41.064Z,100310.84
2022-08-27T00:07:09.234Z,100313.22
2022-08-27T00:09:36.106Z,100312.47
2022-08-27T00:12:03.669Z,100322.38
2022-08-27T00:14:30.774Z,100318.44
2022-08-27T00:16:57.833Z,100314.22
2022-08-27T00:19:25.025Z,100308.31
2022-08-27T00:21:51.728Z,100305.91
2022-08-27T00:24:18.446Z,100315.41
2022-08-27T00:26:45.506Z,100308.13
2022-08-27T00:29:12.938Z,100309.50
2022-08-27T00:31:39.841Z,100303.91
2022-08-27T00:34:07.504Z,100305.88
2022-08-27T00:36:34.958Z,100291.50
2022-08-27T00:39:02.703Z,100295.84
2022-08-27T00:41:29.505Z,100295.97
2022-08-27T00:43:58.688Z,100294.13
2022-08-27T00:46:28.432Z,100291.44
2022-08-27T00:49:05.031Z,100289.13
2022-08-27T00:51:32.033Z,100287.16
2022-08-27T00:53:59.629Z,100281.72
2022-08-27T00:56:31.856Z,100283.53
2022-08-27T00:58:58.617Z,100288.09
2022-08-27T01:01:29.570Z,100283.63
2022-08-27T01:04:00.571Z,100279.47
2022-08-27T01:06:33.460Z,100285.00
2022-08-27T01:09:11.871Z,100280.53
2022-08-27T01:11:39.097Z,100272.31
2022-08-27T01:14:06.578Z,100270.53
2022-08-27T01:16:40.149Z,100278.94
2022-08-27T01:19:15.346Z,100275.28
2022-08-27T01:22:03.122Z,100274.06
2022-08-27T01:24:45.622Z,100272.13
2022-08-27T01:27:18.475Z,100274.41
2022-08-27T01:29:46.057Z,100273.31
2022-08-27T01:32:23.426Z,100269.59
2022-08-27T01:34:50.886Z,100275.63
2022-08-27T01:37:23.699Z,100276.59
2022-08-27T01:39:52.427Z,100277.31
2022-08-27T01:42:23.912Z,100277.75
2022-08-27T01:44:56.991Z,100275.16
2022-08-27T01:47:30.580Z,100271.50
2022-08-27T01:49:59.224Z,100277.16
2022-08-27T01:52:29.316Z,100269.44
2022-08-27T01:54:56.266Z,100277.59
2022-08-27T01:57:26.102Z,100278.97
2022-08-27T01:59:56.894Z,100273.56
2022-08-27T02:02:23.928Z,100281.63
2022-08-27T02:04:51.619Z,100280.31
2022-08-27T02:07:18.789Z,100277.06
2022-08-27T02:09:45.506Z,100273.41
2022-08-27T02:12:12.144Z,100272.94
2022-08-27T02:14:38.904Z,100269.03
2022-08-27T02:17:05.519Z,100261.31
2022-08-27T02:19:32.271Z,100266.22
2022-08-27T02:22:00.632Z,100265.16
2022-08-27T02:24:28.838Z,100254.69
2022-08-27T02:26:57.003Z,100258.25
2022-08-27T02:29:24.424Z,100252.03
2022-08-27T02:31:51.308Z,100259.06
2022-08-27T02:34:18.320Z,100263.72
2022-08-27T02:36:45.052Z,100263.94
2022-08-27T02:39:11.751Z,100265.34
2022-08-27T02:41:38.530Z,100258.97
2022-08-27T02:44:10.337Z,100265.22
2022-08-27T02:46:38.768Z,100260.84
2022-08-27T02:49:06.384Z,100260.16
2022-08-27T02:51:33.453Z,100265.25
2022-08-27T02:54:02.039Z,100258.25
2022-08-27T02:56:29.119Z,100267.13
2022-08-27T02:58:55.937Z,100266.38
2022-08-27T03:01:22.710Z,100264.31
2022-08-27T03:03:49.355Z,100263.00
2022-08-27T03:06:16.388Z,100258.63
2022-08-27T03:08:52.725Z,100265.13
2022-08-27T03:11:23.542Z,100260.66
2022-08-27T03:13:50.777Z,100252.53
2022-08-27T03:16:18.160Z,100249.28
2022-08-27T03:18:45.200Z,100253.13
2022-08-27T03:21:19.329Z,100244.91
2022-08-27T03:23:46.125Z,100248.16
2022-08-27T03:26:12.822Z,100254.00
2022-08-27T03:28:39.556Z,100252.41
2022-08-27T03:31:13.149Z,100262.38
2022-08-27T03:33:40.782Z,100255.50
2022-08-27T03:36:09.607Z,100258.31
2022-08-27T03:38:36.618Z,100257.59
2022-08-27T03:41:04.676Z,100257.59
2022-08-27T03:43:31.877Z,100255.03
2022-08-27T03:46:01.805Z,100259.91
2022-08-27T03:48:32.835Z,100261.97
2022-08-27T03:51:05.207Z,100259.72
2022-08-27T03:53:31.964Z,100267.94
2022-08-27T03:55:58.718Z,100258.41
2022-08-27T03:58:26.316Z,100267.97
2022-08-27T04:00:53.147Z,100264.38
2022-08-27T04:03:19.973Z,100268.44
2022-08-27T04:05:52.760Z,100265.38
2022-08-27T04:08:19.554Z,100271.69
2022-08-27T04:10:46.455Z,100267.13
2022-08-27T04:13:13.389Z,100256.00
2022-08-27T04:15:44.986Z,100267.34
2022-08-27T04:18:14.229Z,100268.34
2022-08-27T04:20:41.374Z,100268.63
2022-08-27T04:23:07.998Z,100270.88
2022-08-27T04:25:38.100Z,100273.44
2022-08-27T04:28:04.937Z,100268.94
2022-08-27T04:30:32.773Z,100276.31
2022-08-27T04:32:59.571Z,100264.38
2022-08-27T04:35:26.574Z,100284.22
2022-08-27T04:37:53.441Z,100279.72
2022-08-27T04:40:20.235Z,100282.94
2022-08-27T04:42:46.960Z,100280.88
2022-08-27T04:45:13.687Z,100283.28
2022-08-27T04:47:40.376Z,100288.25
2022-08-27T04:50:07.391Z,100291.50
2022-08-27T04:52:34.919Z,100295.59
2022-08-27T04:55:08.449Z,100291.13
2022-08-27T04:57:36.116Z,100290.53
2022-08-27T05:00:03.984Z,100294.25
2022-08-27T05:02:30.800Z,100291.03
2022-08-27T05:04:57.502Z,100290.53
2022-08-27T05:07:24.226Z,100290.81
2022-08-27T05:09:52.207Z,100302.25
2022-08-27T05:12:18.968Z,100294.22
2022-08-27T05:14:45.622Z,100297.13
2022-08-27T05:17:12.475Z,100301.81
2022-08-27T05:19:39.341Z,100288.81
2022-08-27T05:22:05.983Z,100291.66
2022-08-27T05:24:32.759Z,100291.47
2022-08-27T05:26:59.474Z,100293.00
2022-08-27T05:29:26.214Z,100283.72
2022-08-27T05:31:52.991Z,100290.34
2022-08-27T05:34:26.226Z,100287.28
2022-08-27T05:36:54.215Z,100292.53
2022-08-27T05:39:21.259Z,100290.94
2022-08-27T05:41:47.980Z,100285.31
2022-08-27T05:47:02.931Z,100291.59
2022-08-27T05:49:29.690Z,100293.91
2022-08-27T05:51:56.367Z,100290.97
2022-08-27T05:54:23.596Z,100292.59
2022-08-27T05:56:50.477Z,100293.56
2022-08-27T05:59:37.238Z,100291.03
2022-08-27T06:02:06.233Z,100294.91
2022-08-27T06:04:33.362Z,100298.91
2022-08-27T06:07:00.133Z,100303.00
2022-08-27T06:09:29.184Z,100301.72
2022-08-27T06:11:58.063Z,100302.47
2022-08-27T06:14:24.953Z,100303.28
2022-08-27T06:16:51.924Z,100309.06
2022-08-27T06:19:19.158Z,100308.13
2022-08-27T06:21:46.482Z,100308.94
2022-08-27T06:24:27.576Z,100301.41
2022-08-27T06:26:54.220Z,100313.44
2022-08-27T06:29:23.577Z,100312.47
2022-08-27T06:31:50.503Z,100301.47
2022-08-27T06:34:17.754Z,100304.22
2022-08-27T06:36:44.484Z,100303.78
2022-08-27T06:39:13.768Z,100306.50
2022-08-27T06:41:42.701Z,100306.19
2022-08-27T06:44:13.628Z,100309.25
2022-08-27T06:46:41.972Z,100302.31
2022-08-27T06:49:09.698Z,100308.50
2022-08-27T06:51:38.338Z,100313.44
2022-08-27T06:54:08.131Z,100313.50
2022-08-27T06:56:36.214Z,100314.63
2022-08-27T06:59:11.671Z,100316.00
2022-08-27T07:01:40.566Z,100321.34
2022-08-27T07:04:10.252Z,100317.31
2022-08-27T07:06:38.708Z,100324.41
2022-08-27T07:09:06.429Z,100328.94
2022-08-27T07:11:34.504Z,100322.78
2022-08-27T07:14:01.604Z,100323.94
2022-08-27T07:16:30.181Z,100332.16
2022-08-27T07:19:04.101Z,100335.69
2022-08-27T07:21:34.763Z,100333.41
2022-08-27T07:24:07.870Z,100331.16
2022-08-27T07:26:36.877Z,100331.47
2022-08-27T07:29:06.556Z,100332.28
2022-08-27T07:31:35.698Z,100333.53
2022-08-27T07:34:04.064Z,100335.50
2022-08-27T07:36:31.544Z,100332.38
2022-08-27T07:39:01.600Z,100329.41
2022-08-27T07:41:33.116Z,100336.06
2022-08-27T07:44:19.386Z,100336.41
2022-08-27T07:46:48.817Z,100340.28
2022-08-27T07:49:17.499Z,100342.06
2022-08-27T07:51:44.805Z,100341.81
2022-08-27T07:54:11.691Z,100346.16
2022-08-27T07:56:38.447Z,100342.09
2022-08-27T07:59:05.102Z,100346.25
2022-08-27T08:01:31.924Z,100348.44
2022-08-27T08:03:58.978Z,100352.78
2022-08-27T08:06:26.025Z,100357.13
2022-08-27T08:08:52.790Z,100356.97
2022-08-27T08:11:20.416Z,100356.41
2022-08-27T08:13:48.268Z,100365.66
2022-08-27T08:16:15.877Z,100367.63
2022-08-27T08:18:42.675Z,100368.06
2022-08-27T08:21:13.100Z,100366.59
2022-08-27T08:23:40.523Z,100362.78
2022-08-27T08:26:08.345Z,100371.47
2022-08-27T08:28:37.013Z,100363.84
2022-08-27T08:31:04.066Z,100362.13
2022-08-27T08:33:34.205Z,100364.84
2022-08-27T08:36:12.999Z,100363.69
2022-08-27T08:38:40.601Z,100367.31
2022-08-27T08:41:27.815Z,100365.78
2022-08-27T08:44:02.225Z,100364.16
2022-08-27T08:46:39.984Z,100367.81
2022-08-27T08:49:29.303Z,100367.53
2022-08-27T08:52:08.629Z,100362.78
2022-08-27T08:54:35.450Z,100369.53
2022-08-27T08:57:08.275Z,100366.00
2022-08-27T08:59:41.889Z,100367.19
2022-08-27T09:02:13.529Z,100360.63
2022-08-27T09:04:42.182Z,100364.31
2022-08-27T09:07:35.182Z,100367.72
2022-08-27T09:10:14.378Z,100367.66
2022-08-27T09:12:41.578Z,100364.22
2022-08-27T09:15:19.668Z,100365.16
2022-08-27T09:17:47.650Z,100371.41
2022-08-27T09:20:19.068Z,100376.66
2022-08-27T09:23:18.198Z,100377.66
2022-08-27T09:25:44.974Z,100368.75
2022-08-27T09:28:35.066Z,100367.59
2022-08-27T09:31:07.447Z,100380.09
2022-08-27T09:33:43.836Z,100384.09
2022-08-27T09:36:23.907Z,100382.63
2022-08-27T09:38:58.603Z,100387.97
2022-08-27T09:41:29.693Z,100386.66
2022-08-27T09:44:02.504Z,100389.72
2022-08-27T09:46:29.705Z,100392.56
2022-08-27T09:48:56.609Z,100389.44
2022-08-27T09:51:27.603Z,100395.22
2022-08-27T09:54:00.872Z,100386.69
2022-08-27T09:56:34.550Z,100390.19
2022-08-27T09:59:07.676Z,100385.47
2022-08-27T10:01:50.421Z,100381.44
2022-08-27T10:04:26.281Z,100387.50
2022-08-27T10:06:53.102Z,100382.22
2022-08-27T10:09:32.987Z,100378.13
2022-08-27T10:12:06.707Z,100379.38
2022-08-27T10:14:40.656Z,100375.97
2022-08-27T10:17:42.672Z,100373.44
2022-08-27T10:20:38.714Z,100367.47
2022-08-27T10:23:11.409Z,100368.88
2022-08-27T10:26:19.324Z,100363.09
2022-08-27T10:29:00.155Z,100368.41
2022-08-27T10:31:32.966Z,100371.28
2022-08-27T10:34:12.579Z,100374.94
2022-08-27T10:37:10.900Z,100376.56
2022-08-27T10:40:00.917Z,100380.31
2022-08-27T10:42:34.380Z,100378.69
2022-08-27T10:45:04.335Z,100372.88
2022-08-27T10:48:06.868Z,100373.81
2022-08-27T10:50:43.836Z,100382.56
2022-08-27T10:53:32.274Z,100381.66
2022-08-27T10:56:10.617Z,100384.41
2022-08-27T10:59:09.907Z,100379.13
2022-08-27T11:02:02.716Z,100377.50
2022-08-27T11:04:35.540Z,100377.28
2022-08-27T11:07:08.551Z,100388.13
2022-08-27T11:09:47.551Z,100372.66
2022-08-27T11:12:18.826Z,100375.78
2022-08-27T11:14:56.770Z,100367.84
2022-08-27T11:17:49.576Z,100370.31
2022-08-27T11:20:21.579Z,100362.94
2022-08-27T11:22:52.684Z,100366.03
2022-08-27T11:25:22.668Z,100369.66
2022-08-27T11:27:51.993Z,100368.03
2022-08-27T11:30:27.997Z,100368.00
2022-08-27T11:33:03.680Z,100360.31
2022-08-27T11:35:39.358Z,100361.91
2022-08-27T11:38:27.594Z,100365.44
2022-08-27T11:41:06.623Z,100365.16
2022-08-27T11:43:36.613Z,100373.22
2022-08-27T11:46:08.490Z,100358.53
2022-08-27T11:48:55.387Z,100357.91
2022-08-27T11:51:40.624Z,100367.22
2022-08-27T11:54:10.541Z,100363.81
2022-08-27T11:56:44.085Z,100355.13
2022-08-27T11:59:20.878Z,100361.13
2022-08-27T12:01:48.982Z,100362.81
2022-08-27T12:04:30.705Z,100355.13
2022-08-27T12:07:00.591Z,100356.25
2022-08-27T12:09:29.919Z,100358.00
2022-08-27T12:12:22.233Z,100347.22
2022-08-27T12:15:05.120Z,100351.56
2022-08-27T12:17:54.691Z,100346.06
2022-08-27T12:20:39.697Z,100345.75
2022-08-27T12:23:42.683Z,100344.66
2022-08-27T12:26:27.670Z,100340.69
2022-08-27T12:29:18.921Z,100340.88
2022-08-27T12:31:48.747Z,100333.34
2022-08-27T12:34:19.661Z,100338.84
2022-08-27T12:36:50.733Z,100327.06
2022-08-27T12:39:26.842Z,100323.97
2022-08-27T12:41:55.698Z,100315.03
2022-08-27T12:44:31.417Z,100317.09
2022-08-27T12:47:02.036Z,100317.78
2022-08-27T12:49:38.431Z,100318.72
2022-08-27T12:52:32.547Z,100317.47
2022-08-27T12:55:16.014Z,100313.22
2022-08-27T12:58:15.627Z,100308.75
2022-08-27T13:01:15.862Z,100314.38
2022-08-27T13:03:47.277Z,100309.56
2022-08-27T13:06:36.083Z,100309.81
2022-08-27T13:09:06.373Z,100314.63
2022-08-27T13:11:43.457Z,100307.47
2022-08-27T13:14:13.195Z,100300.50
2022-08-27T13:17:05.719Z,100304.63
2022-08-27T13:19:35.687Z,100309.56
2022-08-27T13:22:05.874Z,100309.66
2022-08-27T13:24:35.561Z,100298.91
2022-08-27T13:27:05.225Z,100297.25
2022-08-27T13:29:32.754Z,100302.81
2022-08-27T13:32:00.729Z,100300.25
2022-08-27T13:34:32.244Z,100300.63
2022-08-27T13:37:04.161Z,100295.22
2022-08-27T13:39:33.872Z,100292.34
2022-08-27T13:42:02.743Z,100303.00
2022-08-27T13:44:37.550Z,100295.81
2022-08-27T13:47:14.162Z,100295.09
2022-08-27T13:49:41.112Z,100292.84
2022-08-27T13:52:35.403Z,100295.81
2022-08-27T13:55:14.840Z,100301.19
2022-08-27T13:57:47.721Z,100297.50
2022-08-27T14:00:27.192Z,100296.41
2022-08-27T14:02:56.298Z,100291.91
2022-08-27T14:05:23.286Z,100285.34
2022-08-27T14:07:53.254Z,100281.81
2022-08-27T14:10:41.812Z,100284.88
2022-08-27T14:13:21.719Z,100292.13
2022-08-27T14:15:52.285Z,100293.50
2022-08-27T14:18:48.146Z,100295.09
2022-08-27T14:21:14.783Z,100298.19
2022-08-27T14:23:41.618Z,100301.94
2022-08-27T14:26:08.621Z,100296.84
2022-08-27T14:28:35.533Z,100289.72
2022-08-27T14:31:02.605Z,100291.81
2022-08-27T14:33:29.747Z,100292.38
2022-08-27T14:35:56.710Z,100294.63
2022-08-27T14:38:24.215Z,100289.81
2022-08-27T14:40:54.105Z,100290.06
2022-08-27T14:43:22.900Z,100282.94
2022-08-27T14:45:51.948Z,100292.97
2022-08-27T14:48:28.533Z,100299.13
2022-08-27T14:50:56.926Z,100297.97
2022-08-27T14:53:24.510Z,100289.16
2022-08-27T14:55:52.104Z,100292.66
2022-08-27T14:58:19.500Z,100299.50
2022-08-27T15:00:47.126Z,100289.56
2022-08-27T15:03:13.936Z,100292.38
2022-08-27T15:05:40.811Z,100292.34
2022-08-27T15:08:13.187Z,100293.72
2022-08-27T15:10:40.854Z,100291.59
2022-08-27T15:13:09.484Z,100293.09
2022-08-27T15:15:36.300Z,100292.13
2022-08-27T15:18:03.141Z,100285.88
2022-08-27T15:20:30.044Z,100287.00
2022-08-27T15:22:57.194Z,100285.31
2022-08-27T15:25:24.447Z,100288.91
2022-08-27T15:27:51.142Z,100288.66
2022-08-27T15:30:24.429Z,100276.88
2022-08-27T15:32:51.292Z,100279.84
2022-08-27T15:35:23.078Z,100272.50
2022-08-27T15:37:49.831Z,100280.75
2022-08-27T15:40:18.733Z,100276.47
2022-08-27T15:42:47.808Z,100271.84
2022-08-27T15:45:15.017Z,100275.09
2022-08-27T15:47:41.898Z,100274.16
2022-08-27T15:50:08.844Z,100273.47
2022-08-27T15:52:40.892Z,100275.69
2022-08-27T15:55:18.645Z,100273.84
2022-08-27T15:57:45.483Z,100277.41
2022-08-27T16:00:12.740Z,100267.91
2022-08-27T16:02:41.357Z,100271.34
2022-08-27T16:05:08.969Z,100280.78
2022-08-27T16:07:35.724Z,100280.19
2022-08-27T16:10:02.427Z,100280.88
2022-08-27T16:12:30.140Z,100285.22
2022-08-27T16:14:56.852Z,100273.84
2022-08-27T16:17:26.455Z,100288.06
2022-08-27T16:19:53.664Z,100278.75
2022-08-27T16:22:20.542Z,100279.78
2022-08-27T16:24:47.247Z,100280.47
2022-08-27T16:27:13.903Z,100287.03
2022-08-27T16:29:40.580Z,100283.94
2022-08-27T16:32:14.338Z,100275.81
2022-08-27T16:34:41.095Z,100282.72
2022-08-27T16:37:07.807Z,100284.06
2022-08-27T16:39:38.631Z,100284.53
2022-08-27T16:42:10.022Z,100282.81
2022-08-27T16:44:38.332Z,100283.19
2022-08-27T16:47:06.771Z,100290.84
2022-08-27T16:49:52.052Z,100286.94
2022-08-27T16:52:20.757Z,100286.28
2022-08-27T16:54:47.665Z,100294.19
2022-08-27T16:57:14.597Z,100284.19
2022-08-27T16:59:41.435Z,100296.69
2022-08-27T17:02:19.290Z,100292.59
2022-08-27T17:05:07.374Z,100297.66
2022-08-27T17:07:32.941Z,100300.50
2022-08-27T17:10:03.711Z,100299.00
2022-08-27T17:12:32.437Z,100310.81
2022-08-27T17:15:00.730Z,100306.81
2022-08-27T17:17:31.010Z,100304.28
2022-08-27T17:19:57.657Z,100297.38
2022-08-27T17:22:24.497Z,100305.41
2022-08-27T17:24:51.169Z,100306.78
2022-08-27T17:27:20.266Z,100312.75
2022-08-27T17:29:46.990Z,100297.72
2022-08-27T17:32:13.735Z,100308.72
2022-08-27T17:34:40.374Z,100317.09
2022-08-27T17:37:07.041Z,100316.28
2022-08-27T17:39:33.710Z,100318.88
2022-08-27T17:42:00.494Z,100316.47
2022-08-27T17:44:32.754Z,100309.03
2022-08-27T17:47:02.733Z,100315.03
2022-08-27T17:49:32.782Z,100321.44
2022-08-27T17:52:02.732Z,100323.13
2022-08-27T17:54:34.171Z,100313.06
2022-08-27T17:57:03.620Z,100320.84
2022-08-27T17:59:30.521Z,100318.09
2022-08-27T18:01:57.537Z,100323.94
2022-08-27T18:04:24.525Z,100321.97
2022-08-27T18:06:51.365Z,100330.81
2022-08-27T18:09:18.664Z,100324.16
2022-08-27T18:11:46.366Z,100333.47
2022-08-27T18:14:16.285Z,100337.34
2022-08-27T18:16:45.943Z,100340.75
2022-08-27T18:19:12.768Z,100343.97
2022-08-27T18:21:46.982Z,100347.06
2022-08-27T18:24:14.859Z,100348.66
2022-08-27T18:26:42.361Z,100343.81
2022-08-27T18:29:10.374Z,100345.56
2022-08-27T18:31:37.143Z,100354.63
2022-08-27T18:34:03.942Z,100359.56
2022-08-27T18:36:33.250Z,100356.34
2022-08-27T18:38:59.983Z,100360.47
2022-08-27T18:41:30.452Z,100367.75
2022-08-27T18:43:57.761Z,100372.13
2022-08-27T18:46:24.592Z,100372.97
2022-08-27T18:48:51.341Z,100379.78
2022-08-27T18:51:19.727Z,100374.50
2022-08-27T18:53:47.828Z,100378.09
2022-08-27T18:56:18.626Z,100381.06
2022-08-27T18:58:46.751Z,100377.16
2022-08-27T19:01:17.038Z,100388.50
2022-08-27T19:03:47.502Z,100387.41
2022-08-27T19:06:17.458Z,100396.75
2022-08-27T19:08:44.878Z,100395.53
2022-08-27T19:11:11.770Z,100399.34
2022-08-27T19:13:39.221Z,100396.19
2022-08-27T19:16:09.797Z,100393.38
2022-08-27T19:18:40.881Z,100397.16
2022-08-27T19:21:07.993Z,100388.78
2022-08-27T19:23:35.917Z,100393.78
2022-08-27T19:26:03.566Z,100394.00
2022-08-27T19:28:37.953Z,100398.88
2022-08-27T19:31:05.099Z,100395.00
2022-08-27T19:33:32.435Z,100401.75
2022-08-27T19:35:59.292Z,100400.34
2022-08-27T19:38:28.453Z,100407.50
2022-08-27T19:40:55.300Z,100404.94
2022-08-27T19:43:21.972Z,100406.06
2022-08-27T19:45:48.879Z,100410.94
2022-08-27T19:48:16.957Z,100412.63
2022-08-27T19:50:44.847Z,100414.06
2022-08-27T19:53:13.431Z,100417.50
2022-08-27T19:55:45.325Z,100420.91
2022-08-27T19:58:17.742Z,100415.97
2022-08-27T20:00:45.130Z,100415.81
2022-08-27T20:03:12.231Z,100413.06
2022-08-27T20:05:39.336Z,100422.25
2022-08-27T20:08:06.222Z,100424.91
2022-08-27T20:10:36.675Z,100428.59
2022-08-27T20:13:04.709Z,100431.63
2022-08-27T20:15:31.836Z,100423.25
2022-08-27T20:17:59.350Z,100426.78
2022-08-27T20:20:26.873Z,100426.19
2022-08-27T20:22:55.689Z,100436.75
2022-08-27T20:25:23.700Z,100437.69
2022-08-27T20:27:50.993Z,100441.84
2022-08-27T20:30:22.702Z,100443.13
2022-08-27T20:32:50.223Z,100446.78
2022-08-27T20:35:21.042Z,100441.88
2022-08-27T20:37:48.152Z,100445.44
2022-08-27T20:40:21.825Z,100446.09
2022-08-27T20:42:49.046Z,100451.28
2022-08-27T20:45:16.977Z,100450.66
2022-08-27T20:47:45.862Z,100458.22
2022-08-27T20:50:14.172Z,100467.47
2022-08-27T20:52:42.210Z,100457.00
2022-08-27T20:55:10.120Z,100455.25
2022-08-27T20:57:37.897Z,100463.31
2022-08-27T21:00:21.172Z,100453.06
2022-08-27T21:02:47.999Z,100458.16
2022-08-27T21:05:17.400Z,100458.44
2022-08-27T21:07:44.810Z,100461.97
2022-08-27T21:10:11.650Z,100465.25
2022-08-27T21:12:38.318Z,100467.34
2022-08-27T21:15:06.782Z,100462.19
2022-08-27T21:17:34.095Z,100469.41
2022-08-27T21:20:01.083Z,100472.81
2022-08-27T21:22:28.216Z,100475.09
2022-08-27T21:24:55.068Z,100473.22
2022-08-27T21:27:22.297Z,100475.28
2022-08-27T21:29:49.720Z,100468.97
2022-08-27T21:32:17.502Z,100468.31
2022-08-27T21:34:44.555Z,100469.00
2022-08-27T21:37:13.866Z,100475.22
2022-08-27T21:39:41.959Z,100480.25
2022-08-27T21:42:09.782Z,100473.97
2022-08-27T21:44:37.301Z,100480.59
2022-08-27T21:47:04.544Z,100478.19
2022-08-27T21:49:32.646Z,100472.91
2022-08-27T21:52:00.233Z,100477.91
2022-08-27T21:54:27.429Z,100472.59
2022-08-27T21:56:54.896Z,100474.03
2022-08-27T21:59:21.859Z,100476.47
2022-08-27T22:01:52.962Z,100478.06
2022-08-27T22:04:29.765Z,100475.84
2022-08-27T22:06:57.794Z,100471.00
2022-08-27T22:09:24.635Z,100472.91
2022-08-27T22:11:51.476Z,100474.69
2022-08-27T22:14:18.143Z,100472.56
2022-08-27T22:16:44.906Z,100464.69
2022-08-27T22:19:11.554Z,100468.59
2022-08-27T22:21:38.952Z,100466.00
2022-08-27T22:24:06.090Z,100464.56
2022-08-27T22:26:32.771Z,100467.00
2022-08-27T22:28:59.625Z,100465.22
2022-08-27T22:31:26.478Z,100459.25
2022-08-27T22:33:53.461Z,100459.06
2022-08-27T22:36:20.202Z,100452.50
2022-08-27T22:38:47.686Z,100455.06
2022-08-27T22:41:15.040Z,100451.97
2022-08-27T22:43:45.534Z,100455.53
2022-08-27T22:46:12.504Z,100451.34
2022-08-27T22:48:39.399Z,100451.22
2022-08-27T22:51:06.335Z,100461.19
2022-08-27T22:53:36.152Z,100458.63
2022-08-27T22:56:06.093Z,100464.09
2022-08-27T22:58:32.909Z,100459.44
2022-08-27T23:01:00.056Z,100459.06
2022-08-27T23:03:26.865Z,100452.31
2022-08-27T23:05:54.720Z,100452.31
2022-08-27T23:08:23.033Z,100452.50
2022-08-27T23:10:49.671Z,100452.97
2022-08-27T23:13:16.329Z,100453.28
2022-08-27T23:15:43.074Z,100451.03
2022-08-27T23:18:10.221Z,100463.47
2022-08-27T23:20:37.052Z,100462.66
2022-08-27T23:23:03.914Z,100456.69
2022-08-27T23:25:49.063Z,100457.34
2022-08-27T23:28:16.155Z,100465.72
2022-08-27T23:30:44.840Z,100465.06
2022-08-27T23:33:12.907Z,100469.13
2022-08-27T23:35:43.213Z,100475.88
2022-08-27T23:38:10.436Z,100478.59
2022-08-27T23:40:37.255Z,100476.84
2022-08-27T23:43:04.059Z,100477.81
2022-08-27T23:45:30.873Z,100472.63
2022-08-27T23:47:57.737Z,100474.41
2022-08-27T23:50:29.070Z,100473.75
2022-08-27T23:53:02.539Z,100476.69
2022-08-27T23:55:29.344Z,100474.09
2022-08-27T23:57:57.708Z,100480.38
